SCVM

Viña del mar Airport

Airport
ICAO code
SCVM
IATA Code
KNA
Summary
ICAO Region
CARSAM
ICAO Territory
Location

Vina del Mar, Valparaiso

Serving
Vina del Mar
Elevation
461 ft
Coordinates
32° 56' 59" S , 71° 28' 43" W
KCC
Csb
Metar
Observation
SCVM 131600Z 01005KT CAVOK 14/08 Q1022
Station
VINA DEL MAR
Date/Time
2022-08-13 16:00:00
Wind direction
10°
Wind speed
05 kts
Lowest cloud amount
clouds and visibility OK
Temperature
14°C
Dew point
8°C
Humidity
67%
QNH
1022 hPa
Weather condition
n/a

Airport serving Vina del Mar, Valparaiso, Chile.

Climatology

Mediterranean climate (Köppen climate classification Csb)

Runways

Designator Length Width Surface Rops
5/23 1756 30 ASP No/No

Airport map

Aerial View

SKYbrary Partners:

Safety knowledge contributed by: